BUCHANAN DAM (BUC)

Elevation: 450' · CHOWCHILLA R basin · Operator: US Army Corps of Engineers

Provisional data, subject to change.
Query executed Friday at 16:33:15   clock

Select a sensor type for a plot of data.
Note: Reservoir Flows are daily averages.

Earlier

Date RES ELE    STORAGE    RES CHG    TOC STO    ABV TOC    OUTFLOW    INFLOW    PPT INC    TEMP MN    TEMP MX   
 FEET   AF   AF   AF   AF   CFS   CFS   INCHES   DEG F   DEG F  
06/30/2016 506.99 40665 -533 150000 -109335 246 -13 -- 18 40
07/01/2016 506.46 40144 -521 150000 -109856 252 -0 -- 20 41
07/02/2016 505.98 39675 -469 150000 -110325 243 17 -- 19 39
07/03/2016 505.47 39179 -496 150000 -110821 241 2 -- 18 39
07/04/2016 504.93 38657 -522 150000 -111343 248 -5 -- 17 38
07/05/2016 504.38 38128 -529 150000 -111872 263 6 -- 16 36
07/06/2016 503.81 37584 -544 150000 -112416 262 -3 -- 14 35
07/07/2016 503.24 37044 -540 150000 -112956 262 -0 -- 16 34
07/08/2016 502.68 36516 -528 150000 -113484 260 4 -- 16 35
07/09/2016 502.13 36001 -515 150000 -113999 239 -11 -- 17 35
07/10/2016 501.59 35499 -502 150000 -114501 233 -10 -- 14 31
07/11/2016 501.07 35018 -481 150000 -114982 233 -1 -- 12 35
07/12/2016 500.58 34568 -450 150000 -115432 207 -11 -- 15 36
07/13/2016 500.06 34093 -475 150000 -115907 226 -4 -- 16 38
07/14/2016 499.50 33585 -508 150000 -116415 251 5 -- 19 40
07/15/2016 498.86 33009 -576 150000 -116991 292 11 -- 20 41
07/16/2016 498.20 32420 -589 150000 -117580 308 21 -- 19 39
07/17/2016 497.55 31844 -576 150000 -118156 281 -1 -- 17 37
07/18/2016 496.88 31256 -588 150000 -118744 295 8 -- 15 35
07/19/2016 496.22 30682 -574 150000 -119318 289 8 -- 15 35
07/20/2016 495.53 30087 -595 150000 -119913 289 -2 -- 16 37
07/21/2016 494.91 29557 -530 150000 -120443 273 15 -- 17 38
07/22/2016 494.21 28964 -593 150000 -121036 260 -30 -- 16 38
07/23/2016 493.58 28435 -529 150000 -121565 272 13 -- 16 40
07/24/2016 493.01 27961 -474 150000 -122039 256 26 -- 20 41
07/25/2016 492.27 27350 -611 150000 -122650 261 -38 -- 20 41
07/26/2016 491.59 26796 -554 150000 -123204 291 20 -- 20 42
07/27/2016 490.89 26230 -566 150000 -123770 288 12 -- 22 44
07/28/2016 490.19 25671 -559 150000 -124329 284 11 -- 22 43
07/29/2016 -- -- -- -- -- -- -- -- -- --

Later | Latest

Warning! This data is preliminary and subject to revision.

Show BUC Map | Plot BUC Data | 1 Month BUC Data | Real-Time BUC Data | BUC Info